Portada
METAR-TAF:

METAR-TAF

Aeroports :

Luang Namtha, Laos

latitud: 20-57-38N, longitud: 101-24-09E, altitud: 600 m

Observació

L'informe es va fer fa 5 hores i 46 minuts, a les 12:00 UTC
Vent 2 kt del Sud-Est
Temperatura 25°C
Humitat 89%
Pressió 1012 hPa
Visibilitat: 7000 m
Escasses núvols a una alçada de 2000 ft

METAR: VLLN 231200Z 14002KT 7000 FEW020 25/23 Q1012 NOSIG

Hora: 23:16 (17:46 UTC)

Pronòstic

L'informe es va fer fa 46 minuts, a les 17:00 UTC
Pronòstic vàlid del 23 a les 18 UTC al 24 a les 18 UTC
Vent 4 kt del Nord-Oest
Visibilitat: 8000 m
Núvols disperses a una alçada de 2000 ft
Cel ennuvolat a una alçada de 10000 ft
Temporalment
l' 23 a les 18 UTC al 23 a les 22 UTC
Visibilitat: 3000 m
Núvols disperses a una alçada de 1000 ft
Cel ennuvolat a una alçada de 10000 ft
boirina

TAF: VLLN 231700Z 2318/2418 32004KT 8000 SCT020 BKN100 TEMPO 2318/2322 3000 BR SCT010 BKN100

Observacions i pronòstics meteorològics de més de 4000 aeroports (METAR i TAF).

Les estacions disponibles són els punts grocs i vermells al mapa.

Posi el ratolí al punt desitjat per veure el nom de l'estació.

Feu clic per veure les observacions i els pronòstics meteorològics.

Per canviar el mapa: feu clic els botons verds amb una creu de color negre per apropar; al botó verd amb un guió per allunyar la imatge; o en les fletxes verdes per a mapes adjacents.


METAR-TAF: